Terminal Aerodrome Forecast
Issued by NWS

Current Version | Previous Version | Graphics & Text | Print | Product List | Glossary On
Versions: 1 2 3 4 5 6 7 8 9 10 11 12 13 14 15 16 17
871
FTUS41 KPBZ 202320
TAFHLG
TAF
KHLG 202320Z 2100/2124 24007KT P6SM SKC
     FM210800 22005KT P6SM BKN100
     FM211300 26008KT P6SM VCSH BKN050
     FM212000 28008G16KT P6SM SCT100=

USA.gov is the U.S. government's official web portal to all federal, state and local government web resources and services.